Time;durP1;ratioP1;P1;durP2;ratioP2;P2;SDS_P1;SDS_P2;PMS_P1;PMS_P2;Temp;Humidity;BMP_temperature;BMP_pressure;BME280_temperature;BME280_humidity;BME280_pressure;Samples;Min_cycle;Max_cycle;Signal;HPM_P1;HPM_P2
2022/09/26 00:01:40;;;;;;;;;;;13.10;99.90;;;;;;5090436;28;20337;-89
2022/09/26 00:04:08;;;;;;;;;;;13.10;99.90;;;;;;5073264;28;19924;-91
2022/09/26 00:06:35;;;;;;;;;;;13.10;99.90;;;;;;5075391;28;19924;-89
2022/09/26 00:09:02;;;;;;;;;;;13.10;99.90;;;;;;5071552;28;19978;-89
2022/09/26 00:11:30;;;;;;;;;;;13.10;99.90;;;;;;5071709;28;19983;-88
2022/09/26 00:13:58;;;;;;;;;;;13.10;99.90;;;;;;5075121;28;19962;-88
2022/09/26 00:16:27;;;;;;;;;;;13.10;99.90;;;;;;5072036;28;19930;-88
2022/09/26 00:18:54;;;;;;;;;;;13.10;99.90;;;;;;5073756;28;20019;-89
2022/09/26 00:21:22;;;;;;;;;;;13.10;99.90;;;;;;5078520;28;19978;-89
2022/09/26 00:23:49;;;;;;;;;;;13.10;99.90;;;;;;5072593;28;20011;-92
2022/09/26 00:26:16;;;;;;;;;;;13.00;99.90;;;;;;5076492;28;20402;-91
2022/09/26 00:28:43;;;;;;;;;;;13.00;99.90;;;;;;5088032;28;19928;-94
2022/09/26 00:31:12;;;;;;;;;;;13.00;99.90;;;;;;5071865;28;19928;-89
2022/09/26 00:33:41;;;;;;;;;;;13.00;99.90;;;;;;5106500;27;19931;-91
2022/09/26 00:36:08;;;;;;;;;;;13.00;99.90;;;;;;5069569;28;19971;-89
2022/09/26 00:38:35;;;;;;;;;;;13.00;99.90;;;;;;5075772;28;19966;-91
2022/09/26 00:41:03;;;;;;;;;;;13.00;99.90;;;;;;5073449;28;20352;-88
2022/09/26 00:43:30;;;;;;;;;;;13.00;99.90;;;;;;5069377;28;20049;-90
2022/09/26 00:45:59;;;;;;;;;;;13.00;99.90;;;;;;5075566;28;20428;-88
2022/09/26 00:48:28;;;;;;;;;;;13.00;99.90;;;;;;5088111;28;20319;-90
2022/09/26 00:50:57;;;;;;;;;;;13.00;99.90;;;;;;5078816;28;19969;-91
2022/09/26 00:53:25;;;;;;;;;;;13.00;99.90;;;;;;5088491;28;19927;-89
2022/09/26 00:55:54;;;;;;;;;;;12.90;99.90;;;;;;5080512;28;19955;-89
2022/09/26 00:58:22;;;;;;;;;;;12.90;99.90;;;;;;5092492;28;20040;-89
2022/09/26 01:00:49;;;;;;;;;;;12.90;99.90;;;;;;5073838;28;19924;-89
2022/09/26 01:03:17;;;;;;;;;;;12.90;99.90;;;;;;5072418;28;19924;-90
2022/09/26 01:05:45;;;;;;;;;;;12.90;99.90;;;;;;5077065;28;19931;-92
2022/09/26 01:08:14;;;;;;;;;;;12.90;99.90;;;;;;5084741;28;19935;-90
2022/09/26 01:10:44;;;;;;;;;;;12.90;99.90;;;;;;5086518;28;20263;-89
2022/09/26 01:13:11;;;;;;;;;;;12.90;99.90;;;;;;5098420;28;19928;-88
2022/09/26 01:15:37;;;;;;;;;;;12.90;99.90;;;;;;5081024;28;20204;-88
2022/09/26 01:18:06;;;;;;;;;;;12.90;99.90;;;;;;5079813;28;20019;-89
2022/09/26 01:20:35;;;;;;;;;;;12.90;99.90;;;;;;5098842;28;19924;-88
2022/09/26 01:23:18;;;;;;;;;;;12.80;99.90;;;;;;5082452;28;19923;-89
2022/09/26 01:26:00;;;;;;;;;;;12.80;99.90;;;;;;5087156;28;19927;-94
2022/09/26 01:28:41;;;;;;;;;;;12.80;99.90;;;;;;5112373;27;19931;-88
2022/09/26 01:31:13;;;;;;;;;;;12.80;99.90;;;;;;5098452;28;20405;-89
2022/09/26 01:33:48;;;;;;;;;;;12.80;99.90;;;;;;5076324;28;19928;-90
2022/09/26 01:36:33;;;;;;;;;;;12.80;99.90;;;;;;5090424;28;19928;-93
2022/09/26 01:39:11;;;;;;;;;;;12.80;99.90;;;;;;5080695;28;19924;-89
2022/09/26 01:41:48;;;;;;;;;;;12.80;99.90;;;;;;5095031;28;19928;-89
2022/09/26 01:44:23;;;;;;;;;;;12.80;99.90;;;;;;5077593;28;19924;-88
2022/09/26 01:46:54;;;;;;;;;;;12.70;99.90;;;;;;5091966;28;19928;-89
2022/09/26 01:49:23;;;;;;;;;;;12.80;99.90;;;;;;5077775;28;19925;-93
2022/09/26 01:51:53;;;;;;;;;;;12.80;99.90;;;;;;5104468;27;19932;-90
2022/09/26 01:54:22;;;;;;;;;;;12.70;99.90;;;;;;5097390;28;19924;-88
2022/09/26 01:56:50;;;;;;;;;;;12.70;99.90;;;;;;5077757;28;20018;-89
2022/09/26 01:59:20;;;;;;;;;;;12.60;99.90;;;;;;5080720;28;19931;-88
2022/09/26 02:01:54;;;;;;;;;;;12.60;99.90;;;;;;5073181;28;19924;-89
2022/09/26 02:04:24;;;;;;;;;;;12.60;99.90;;;;;;5108643;27;19931;-91
2022/09/26 02:06:52;;;;;;;;;;;12.50;99.90;;;;;;5093355;28;19928;-91
2022/09/26 02:09:22;;;;;;;;;;;12.50;99.90;;;;;;5093895;28;20015;-91
2022/09/26 02:11:49;;;;;;;;;;;12.50;99.90;;;;;;5112550;27;19991;-88
2022/09/26 02:14:18;;;;;;;;;;;12.50;99.90;;;;;;5075299;28;19992;-89
2022/09/26 02:16:47;;;;;;;;;;;12.50;99.90;;;;;;5098237;28;19955;-88
2022/09/26 02:19:19;;;;;;;;;;;12.50;99.90;;;;;;5074332;28;19974;-90
2022/09/26 02:21:46;;;;;;;;;;;12.50;99.90;;;;;;5083027;28;19924;-92
2022/09/26 02:24:13;;;;;;;;;;;12.40;99.90;;;;;;5076225;28;19936;-92
2022/09/26 02:26:41;;;;;;;;;;;12.40;99.90;;;;;;5078775;28;20398;-90
2022/09/26 02:29:08;;;;;;;;;;;12.40;99.90;;;;;;5078728;28;19932;-91
2022/09/26 02:31:36;;;;;;;;;;;12.40;99.90;;;;;;5080395;28;19935;-89
2022/09/26 02:34:04;;;;;;;;;;;12.40;99.90;;;;;;5110287;27;19970;-89
2022/09/26 02:36:33;;;;;;;;;;;12.40;99.90;;;;;;5076920;28;19934;-88
2022/09/26 02:39:00;;;;;;;;;;;12.40;99.90;;;;;;5075572;28;20347;-91
2022/09/26 02:41:45;;;;;;;;;;;12.30;99.90;;;;;;5094965;28;19945;-91
2022/09/26 02:44:17;;;;;;;;;;;12.30;99.90;;;;;;5079292;28;20044;-89
2022/09/26 02:46:51;;;;;;;;;;;12.30;99.90;;;;;;5091683;28;19975;-91
2022/09/26 02:49:29;;;;;;;;;;;12.30;99.90;;;;;;5107874;27;19963;-87
2022/09/26 02:52:03;;;;;;;;;;;12.30;99.90;;;;;;5106724;27;19931;-88
2022/09/26 02:54:32;;;;;;;;;;;12.30;99.90;;;;;;5078283;28;19939;-93
2022/09/26 02:57:10;;;;;;;;;;;12.30;99.90;;;;;;5110600;27;20011;-89
2022/09/26 02:59:46;;;;;;;;;;;12.30;99.90;;;;;;5069358;28;20473;-89
2022/09/26 03:02:15;;;;;;;;;;;12.30;99.90;;;;;;5073342;28;19931;-89
2022/09/26 03:04:49;;;;;;;;;;;12.20;99.90;;;;;;5077329;28;20292;-90
2022/09/26 03:07:20;;;;;;;;;;;12.20;99.90;;;;;;5109695;27;19924;-89
2022/09/26 03:09:48;;;;;;;;;;;12.20;99.90;;;;;;5079489;28;19928;-90
2022/09/26 03:12:15;;;;;;;;;;;12.20;99.90;;;;;;5076766;28;20044;-92
2022/09/26 03:14:45;;;;;;;;;;;12.20;99.90;;;;;;5110390;28;19929;-91
2022/09/26 03:17:14;;;;;;;;;;;12.20;99.90;;;;;;5077603;28;19932;-89
2022/09/26 03:19:43;;;;;;;;;;;12.10;99.90;;;;;;5075934;28;19924;-88
2022/09/26 03:22:10;;;;;;;;;;;12.10;99.90;;;;;;5111423;27;19954;-88
2022/09/26 03:24:40;;;;;;;;;;;12.10;99.90;;;;;;5080892;28;21022;-89
2022/09/26 03:27:07;;;;;;;;;;;12.10;99.90;;;;;;5084839;28;19924;-90
2022/09/26 03:29:37;;;;;;;;;;;12.20;99.90;;;;;;5112430;27;19924;-91
2022/09/26 03:32:05;;;;;;;;;;;12.10;99.90;;;;;;5081458;28;20029;-89
2022/09/26 03:34:32;;;;;;;;;;;12.10;99.90;;;;;;5078999;28;20378;-90
2022/09/26 03:36:59;;;;;;;;;;;12.10;99.90;;;;;;5087385;28;19931;-88
2022/09/26 03:39:26;;;;;;;;;;;12.10;99.90;;;;;;5082764;28;19924;-89
2022/09/26 03:42:02;;;;;;;;;;;12.10;99.90;;;;;;5083007;28;19928;-90
2022/09/26 03:44:30;;;;;;;;;;;12.10;99.90;;;;;;5079531;28;19928;-91
2022/09/26 03:47:03;;;;;;;;;;;12.10;99.90;;;;;;5096468;28;20756;-89
2022/09/26 03:49:30;;;;;;;;;;;12.10;99.90;;;;;;5076345;28;19932;-89
2022/09/26 03:51:57;;;;;;;;;;;12.10;99.90;;;;;;5083181;28;20026;-90
2022/09/26 03:54:24;;;;;;;;;;;12.00;99.90;;;;;;5076043;28;19974;-90
2022/09/26 03:56:51;;;;;;;;;;;;;;;;;;5079641;28;19932;-95
2022/09/26 03:59:19;;;;;;;;;;;12.00;99.90;;;;;;5072724;28;19924;-93
2022/09/26 04:01:47;;;;;;;;;;;12.00;99.90;;;;;;5110650;27;19945;-92
2022/09/26 04:04:15;;;;;;;;;;;12.00;99.90;;;;;;5081120;28;20386;-91
2022/09/26 04:06:43;;;;;;;;;;;12.00;99.90;;;;;;5085992;28;19928;-90
2022/09/26 04:09:10;;;;;;;;;;;12.00;99.90;;;;;;5070009;28;20026;-93
2022/09/26 04:11:39;;;;;;;;;;;12.00;99.90;;;;;;5101473;27;20003;-85
2022/09/26 04:14:06;;;;;;;;;;;12.00;99.90;;;;;;5071348;28;19963;-84
2022/09/26 04:16:37;;;;;;;;;;;12.00;99.90;;;;;;5077622;28;19928;-88
2022/09/26 04:19:12;;;;;;;;;;;12.00;99.90;;;;;;5079790;28;19932;-88
2022/09/26 04:21:40;;;;;;;;;;;12.00;99.90;;;;;;5078784;28;20344;-84
2022/09/26 04:24:07;;;;;;;;;;;12.00;99.90;;;;;;5077489;28;19987;-83
2022/09/26 04:26:34;;;;;;;;;;;12.00;99.90;;;;;;5081802;28;19979;-83
2022/09/26 04:29:00;;;;;;;;;;;12.00;99.90;;;;;;5081658;28;19951;-84
2022/09/26 04:31:51;;;;;;;;;;;12.00;99.90;;;;;;5066806;28;20006;-82
2022/09/26 04:34:23;;;;;;;;;;;11.90;99.90;;;;;;5083747;28;19997;-84
2022/09/26 04:36:51;;;;;;;;;;;11.80;99.90;;;;;;5082348;28;19962;-86
2022/09/26 04:39:25;;;;;;;;;;;12.00;99.90;;;;;;5081855;28;20418;-87
2022/09/26 04:41:53;;;;;;;;;;;11.90;99.90;;;;;;5093729;28;19928;-87
2022/09/26 04:44:21;;;;;;;;;;;11.90;99.90;;;;;;5073159;28;20207;-86
2022/09/26 04:46:48;;;;;;;;;;;11.90;99.90;;;;;;5086503;28;19960;-87
2022/09/26 04:49:17;;;;;;;;;;;11.90;99.90;;;;;;5082509;28;19978;-86
2022/09/26 04:51:44;;;;;;;;;;;11.90;99.90;;;;;;5087136;28;19928;-86
2022/09/26 04:54:11;;;;;;;;;;;12.00;99.90;;;;;;5073249;28;20058;-86
2022/09/26 04:56:40;;;;;;;;;;;11.90;99.90;;;;;;5080009;28;19924;-83
2022/09/26 04:59:08;;;;;;;;;;;11.90;99.90;;;;;;5073223;28;19932;-87
2022/09/26 05:01:53;;;;;;;;;;;11.90;99.90;;;;;;5083233;28;20541;-87
2022/09/26 05:04:32;;;;;;;;;;;11.90;99.90;;;;;;5063843;28;19928;-88
2022/09/26 05:07:01;;;;;;;;;;;11.90;99.90;;;;;;5100892;28;20397;-90
2022/09/26 05:09:32;;;;;;;;;;;11.90;99.90;;;;;;5069922;28;20026;-90
2022/09/26 05:12:17;;;;;;;;;;;12.00;99.90;;;;;;5070526;28;19967;-87
2022/09/26 05:14:55;;;;;;;;;;;11.80;99.90;;;;;;5083940;28;19924;-87
2022/09/26 05:17:28;;;;;;;;;;;11.90;99.90;;;;;;5080286;28;19928;-93
2022/09/26 05:20:03;;;;;;;;;;;11.80;99.90;;;;;;5081828;28;19924;-86
2022/09/26 05:22:45;;;;;;;;;;;11.80;99.90;;;;;;5070884;28;19940;-91
2022/09/26 05:27:56;;;;;;;;;;;11.80;99.90;;;;;;5108966;28;19928;-95
2022/09/26 05:30:30;;;;;;;;;;;11.80;99.90;;;;;;5079615;28;19930;-89
2022/09/26 05:32:57;;;;;;;;;;;11.70;99.90;;;;;;5081750;28;19969;-91
2022/09/26 05:35:26;;;;;;;;;;;11.80;99.90;;;;;;5080244;28;20178;-91
2022/09/26 05:37:58;;;;;;;;;;;11.80;99.90;;;;;;5084002;28;19984;-93
2022/09/26 05:43:10;;;;;;;;;;;11.80;99.90;;;;;;5077660;28;19934;-91
2022/09/26 05:45:37;;;;;;;;;;;11.80;99.90;;;;;;5086667;28;19928;-90
2022/09/26 05:48:05;;;;;;;;;;;11.80;99.90;;;;;;5080201;28;19928;-90
2022/09/26 05:50:34;;;;;;;;;;;11.80;99.90;;;;;;5081870;28;19924;-91
2022/09/26 05:53:02;;;;;;;;;;;11.90;99.90;;;;;;5079593;28;20016;-91
2022/09/26 05:55:29;;;;;;;;;;;11.80;99.90;;;;;;5081929;28;19923;-90
2022/09/26 05:58:22;;;;;;;;;;;11.80;99.90;;;;;;5112127;27;19924;-90
2022/09/26 06:01:13;;;;;;;;;;;11.80;99.90;;;;;;5092159;28;19924;-90
2022/09/26 06:03:41;;;;;;;;;;;11.80;99.90;;;;;;5090101;28;19925;-92
2022/09/26 06:06:13;;;;;;;;;;;11.80;99.90;;;;;;5093933;28;19963;-90
2022/09/26 06:08:40;;;;;;;;;;;11.80;99.90;;;;;;5090027;28;19924;-92
2022/09/26 06:11:23;;;;;;;;;;;11.80;99.90;;;;;;5101262;28;20048;-92
2022/09/26 06:13:51;;;;;;;;;;;11.80;99.90;;;;;;5079636;28;19924;-90
2022/09/26 06:16:18;;;;;;;;;;;11.80;99.90;;;;;;5097186;28;19923;-92
2022/09/26 06:18:47;;;;;;;;;;;11.70;99.90;;;;;;5085773;28;20023;-89
2022/09/26 06:21:17;;;;;;;;;;;11.70;99.90;;;;;;5084063;28;19924;-90
2022/09/26 06:23:46;;;;;;;;;;;11.70;99.90;;;;;;5084368;28;20382;-91
2022/09/26 06:26:16;;;;;;;;;;;11.70;99.90;;;;;;5099381;28;19908;-89
2022/09/26 06:28:43;;;;;;;;;;;11.70;99.90;;;;;;5079765;28;20393;-91
2022/09/26 06:31:10;;;;;;;;;;;11.70;99.90;;;;;;5085994;28;20046;-92
2022/09/26 06:33:57;;;;;;;;;;;11.70;99.90;;;;;;5098787;28;19919;-92
2022/09/26 06:36:48;;;;;;;;;;;11.70;99.90;;;;;;5098435;28;19946;-89
2022/09/26 06:39:15;;;;;;;;;;;11.70;99.90;;;;;;5105785;28;19928;-89
2022/09/26 06:41:44;;;;;;;;;;;11.70;99.90;;;;;;5081811;28;19930;-89
2022/09/26 06:44:28;;;;;;;;;;;11.70;99.90;;;;;;5090220;28;19924;-94
2022/09/26 06:47:14;;;;;;;;;;;11.70;99.90;;;;;;5104896;28;19998;-90
2022/09/26 06:49:41;;;;;;;;;;;11.70;99.90;;;;;;5076022;28;19936;-90
2022/09/26 06:52:33;;;;;;;;;;;11.70;99.90;;;;;;5089249;28;19924;-93
2022/09/26 06:55:02;;;;;;;;;;;11.70;99.90;;;;;;5094719;28;19971;-90
2022/09/26 06:57:36;;;;;;;;;;;11.70;99.90;;;;;;5077389;28;19924;-91
2022/09/26 07:00:03;;;;;;;;;;;11.70;99.90;;;;;;5083859;28;19924;-94
2022/09/26 07:02:49;;;;;;;;;;;11.60;99.90;;;;;;5103865;28;19930;-91
2022/09/26 07:05:23;;;;;;;;;;;11.70;99.90;;;;;;5072483;28;20458;-90
2022/09/26 07:07:54;;;;;;;;;;;11.70;99.90;;;;;;5115190;27;19928;-90
2022/09/26 07:10:33;;;;;;;;;;;11.60;99.90;;;;;;5089902;28;20244;-89
2022/09/26 07:13:05;;;;;;;;;;;11.60;99.90;;;;;;5081182;28;19931;-89
2022/09/26 07:15:33;;;;;;;;;;;11.60;99.90;;;;;;5087035;28;19949;-90
2022/09/26 07:18:03;;;;;;;;;;;11.60;99.90;;;;;;5084288;28;19924;-90
2022/09/26 07:20:40;;;;;;;;;;;11.60;99.90;;;;;;5087972;28;20001;-91
2022/09/26 07:23:28;;;;;;;;;;;11.60;99.90;;;;;;5078793;28;19982;-90
2022/09/26 07:25:55;;;;;;;;;;;11.60;99.90;;;;;;5077336;28;19924;-89
2022/09/26 07:28:23;;;;;;;;;;;11.60;99.90;;;;;;5081504;28;19939;-90
2022/09/26 07:30:50;;;;;;;;;;;11.60;99.90;;;;;;5088737;28;19923;-91
2022/09/26 07:33:38;;;;;;;;;;;11.60;99.90;;;;;;5092761;28;19939;-93
2022/09/26 07:36:08;;;;;;;;;;;11.60;99.90;;;;;;5084918;28;19924;-92
2022/09/26 07:38:37;;;;;;;;;;;11.60;99.90;;;;;;5078776;28;19924;-90
2022/09/26 07:41:09;;;;;;;;;;;11.60;99.90;;;;;;5083472;28;20025;-92
2022/09/26 07:43:36;;;;;;;;;;;11.60;99.90;;;;;;5086496;28;20509;-95
2022/09/26 07:52:07;;;;;;;;;;;11.60;99.90;;;;;;5061246;28;19927;-90
2022/09/26 07:54:59;;;;;;;;;;;11.60;99.90;;;;;;5065060;28;20007;-89
2022/09/26 07:57:58;;;;;;;;;;;11.70;99.90;;;;;;5069498;28;19951;-91
2022/09/26 08:00:40;;;;;;;;;;;11.70;99.90;;;;;;5098167;28;19928;-93
2022/09/26 08:03:28;;;;;;;;;;;11.70;99.90;;;;;;5096321;28;19930;-91
2022/09/26 08:05:59;;;;;;;;;;;11.70;99.90;;;;;;5074853;28;19931;-93
2022/09/26 08:08:26;;;;;;;;;;;11.70;99.90;;;;;;5078490;28;19982;-91
2022/09/26 08:11:04;;;;;;;;;;;11.70;99.90;;;;;;5107712;28;19923;-90
2022/09/26 08:13:43;;;;;;;;;;;11.70;99.90;;;;;;5072581;28;19924;-90
2022/09/26 08:16:38;;;;;;;;;;;11.70;99.90;;;;;;5082875;28;19923;-91
2022/09/26 08:19:07;;;;;;;;;;;11.70;99.90;;;;;;5081512;28;19935;-92
2022/09/26 08:21:34;;;;;;;;;;;11.70;99.90;;;;;;5075984;28;19935;-94
2022/09/26 08:24:01;;;;;;;;;;;11.70;99.90;;;;;;5085367;28;20361;-90
2022/09/26 08:26:36;;;;;;;;;;;11.70;99.90;;;;;;5095300;28;19967;-91
2022/09/26 08:29:12;;;;;;;;;;;11.70;99.90;;;;;;5080344;28;19925;-90
2022/09/26 08:31:40;;;;;;;;;;;11.70;99.90;;;;;;5081812;28;19924;-89
2022/09/26 08:34:08;;;;;;;;;;;11.70;99.90;;;;;;5072640;28;19981;-89
2022/09/26 08:36:35;;;;;;;;;;;11.70;99.90;;;;;;5075522;28;19924;-91
2022/09/26 08:39:21;;;;;;;;;;;11.70;99.90;;;;;;5093788;28;20021;-90
2022/09/26 08:42:22;;;;;;;;;;;11.80;99.90;;;;;;5095566;28;19934;-93
2022/09/26 08:48:43;;;;;;;;;;;11.80;99.90;;;;;;5077211;28;19920;-92
2022/09/26 08:51:18;;;;;;;;;;;11.80;99.90;;;;;;5081482;28;19969;-90
2022/09/26 08:53:48;;;;;;;;;;;11.80;99.90;;;;;;5083807;28;20293;-92
2022/09/26 08:56:18;;;;;;;;;;;11.80;99.90;;;;;;5080261;28;20451;-89
2022/09/26 08:58:51;;;;;;;;;;;11.80;99.90;;;;;;5085028;28;19928;-89
2022/09/26 09:01:23;;;;;;;;;;;11.90;99.90;;;;;;5074675;28;19924;-90
2022/09/26 09:04:20;;;;;;;;;;;11.90;99.90;;;;;;5107699;28;20405;-91
2022/09/26 09:06:47;;;;;;;;;;;11.90;99.90;;;;;;5076881;28;19924;-89
2022/09/26 09:09:16;;;;;;;;;;;11.90;99.90;;;;;;5091560;28;19923;-90
2022/09/26 09:12:09;;;;;;;;;;;11.90;99.90;;;;;;5094907;28;19928;-91
2022/09/26 09:14:47;;;;;;;;;;;11.90;99.90;;;;;;5087170;28;19970;-90
2022/09/26 09:17:40;;;;;;;;;;;11.90;99.90;;;;;;5093791;28;19932;-90
2022/09/26 09:20:33;;;;;;;;;;;11.90;99.90;;;;;;5085730;28;19924;-89
2022/09/26 09:23:26;;;;;;;;;;;11.90;99.90;;;;;;5101807;28;20385;-91
2022/09/26 09:25:57;;;;;;;;;;;11.90;99.90;;;;;;5076313;28;19973;-92
2022/09/26 09:28:29;;;;;;;;;;;12.00;99.90;;;;;;5115055;27;19928;-92
2022/09/26 09:30:59;;;;;;;;;;;12.00;99.90;;;;;;5084004;28;19931;-92
2022/09/26 09:33:50;;;;;;;;;;;12.00;99.90;;;;;;5087777;28;19924;-90
2022/09/26 09:36:25;;;;;;;;;;;12.00;99.90;;;;;;5096971;28;19978;-91
2022/09/26 09:39:08;;;;;;;;;;;12.00;99.90;;;;;;5082688;28;19932;-90
2022/09/26 09:41:58;;;;;;;;;;;12.00;99.90;;;;;;5085565;28;19975;-90
2022/09/26 09:44:29;;;;;;;;;;;12.00;99.90;;;;;;5084279;28;19931;-90
2022/09/26 09:46:58;;;;;;;;;;;12.00;99.90;;;;;;5084425;28;19939;-91
2022/09/26 09:49:27;;;;;;;;;;;12.00;99.90;;;;;;5081645;28;19924;-92
2022/09/26 09:52:09;;;;;;;;;;;12.10;99.90;;;;;;5095995;28;19912;-91
2022/09/26 09:54:41;;;;;;;;;;;12.10;99.90;;;;;;5083582;28;20353;-89
2022/09/26 09:57:26;;;;;;;;;;;12.10;99.90;;;;;;5114585;27;19924;-92
2022/09/26 10:00:01;;;;;;;;;;;12.10;99.90;;;;;;5086068;28;20006;-89
2022/09/26 10:02:36;;;;;;;;;;;12.10;99.90;;;;;;5083334;28;19925;-89
2022/09/26 10:05:24;;;;;;;;;;;12.10;99.90;;;;;;5078805;28;20375;-90
2022/09/26 10:07:56;;;;;;;;;;;12.10;99.90;;;;;;5078557;28;19958;-90
2022/09/26 10:10:46;;;;;;;;;;;12.10;99.90;;;;;;5095939;28;19930;-90
2022/09/26 10:13:32;;;;;;;;;;;12.10;99.90;;;;;;5097091;28;19946;-90
2022/09/26 10:16:16;;;;;;;;;;;12.10;99.90;;;;;;5070467;28;19924;-89
2022/09/26 10:18:55;;;;;;;;;;;12.20;99.90;;;;;;5078935;28;20318;-90
2022/09/26 10:21:27;;;;;;;;;;;12.10;99.90;;;;;;5080915;28;20015;-90
2022/09/26 10:23:54;;;;;;;;;;;12.20;99.90;;;;;;5085095;28;19931;-91
2022/09/26 10:26:39;;;;;;;;;;;12.20;99.90;;;;;;5075081;28;19939;-92
2022/09/26 10:29:21;;;;;;;;;;;12.20;99.90;;;;;;5079689;28;19935;-90
2022/09/26 10:31:54;;;;;;;;;;;12.20;99.90;;;;;;5089358;28;19948;-92
2022/09/26 10:34:24;;;;;;;;;;;12.20;99.90;;;;;;5081411;28;19970;-89
2022/09/26 10:36:52;;;;;;;;;;;12.20;99.90;;;;;;5082178;28;19931;-90
2022/09/26 10:42:15;;;;;;;;;;;12.20;99.90;;;;;;5099481;28;19919;-90
2022/09/26 10:44:44;;;;;;;;;;;12.30;99.90;;;;;;5084925;28;19924;-91
2022/09/26 10:47:22;;;;;;;;;;;12.30;99.90;;;;;;5088785;28;19999;-91
2022/09/26 10:50:17;;;;;;;;;;;12.30;99.90;;;;;;5079418;28;19963;-91
2022/09/26 10:53:10;;;;;;;;;;;12.30;99.90;;;;;;5108110;28;19928;-89
2022/09/26 10:55:40;;;;;;;;;;;12.30;99.90;;;;;;5107557;28;19981;-91
2022/09/26 10:58:09;;;;;;;;;;;12.30;99.90;;;;;;5090577;28;19982;-92
2022/09/26 11:00:37;;;;;;;;;;;12.30;99.90;;;;;;5082498;28;19924;-90
2022/09/26 11:03:09;;;;;;;;;;;12.30;99.90;;;;;;5083291;28;19928;-90
2022/09/26 11:05:58;;;;;;;;;;;12.40;99.90;;;;;;5073561;28;19928;-90
2022/09/26 11:08:33;;;;;;;;;;;12.40;99.90;;;;;;5084142;28;20011;-89
2022/09/26 11:11:20;;;;;;;;;;;12.40;99.90;;;;;;5099938;28;19931;-89
2022/09/26 11:14:02;;;;;;;;;;;12.40;99.90;;;;;;5081118;28;19928;-91
2022/09/26 11:16:29;;;;;;;;;;;12.40;99.90;;;;;;5097183;28;19928;-91
2022/09/26 11:19:02;;;;;;;;;;;12.40;99.90;;;;;;5079055;28;19924;-90
2022/09/26 11:21:35;;;;;;;;;;;12.50;99.90;;;;;;5082818;28;19924;-90
2022/09/26 11:24:18;;;;;;;;;;;12.50;99.90;;;;;;5083732;28;19928;-92
2022/09/26 11:26:52;;;;;;;;;;;12.40;99.90;;;;;;5110266;27;20446;-89
2022/09/26 11:29:23;;;;;;;;;;;12.50;99.90;;;;;;5105489;27;19928;-93
2022/09/26 11:32:04;;;;;;;;;;;12.50;99.90;;;;;;5082676;28;19950;-90
2022/09/26 11:34:51;;;;;;;;;;;12.50;99.90;;;;;;5077839;28;19928;-91
2022/09/26 11:37:35;;;;;;;;;;;12.50;99.90;;;;;;5088644;28;19924;-91
2022/09/26 11:40:20;;;;;;;;;;;12.50;99.90;;;;;;5108815;28;20266;-89
2022/09/26 11:42:57;;;;;;;;;;;12.50;99.90;;;;;;5078884;28;19928;-89
2022/09/26 11:45:30;;;;;;;;;;;12.50;99.90;;;;;;5083526;28;19924;-89
2022/09/26 11:48:37;;;;;;;;;;;12.60;99.90;;;;;;5094731;28;19931;-89
2022/09/26 11:51:41;;;;;;;;;;;12.60;99.90;;;;;;5048194;28;20394;-91
2022/09/26 11:54:27;;;;;;;;;;;12.60;99.90;;;;;;5080001;28;20032;-92
2022/09/26 11:57:00;;;;;;;;;;;12.60;99.90;;;;;;5098221;28;19960;-91
2022/09/26 11:59:33;;;;;;;;;;;12.60;99.90;;;;;;5108587;28;19977;-90
2022/09/26 12:02:11;;;;;;;;;;;12.70;99.90;;;;;;5100215;28;20307;-89
2022/09/26 12:04:48;;;;;;;;;;;12.70;99.90;;;;;;5081125;28;19931;-91
2022/09/26 12:07:19;;;;;;;;;;;12.70;99.90;;;;;;5104606;28;19951;-89
2022/09/26 12:10:07;;;;;;;;;;;12.70;99.90;;;;;;5099738;28;19924;-89
2022/09/26 12:12:41;;;;;;;;;;;12.80;99.90;;;;;;5081999;28;19973;-89
2022/09/26 12:15:13;;;;;;;;;;;12.80;99.90;;;;;;5103311;28;19985;-89
2022/09/26 12:17:48;;;;;;;;;;;12.80;99.90;;;;;;5102761;28;19928;-86
2022/09/26 12:20:24;;;;;;;;;;;12.80;99.90;;;;;;5119601;27;19939;-91
2022/09/26 12:22:55;;;;;;;;;;;12.90;99.90;;;;;;5095463;28;19978;-89
2022/09/26 12:25:28;;;;;;;;;;;12.90;99.90;;;;;;5117202;27;19987;-89
2022/09/26 12:28:02;;;;;;;;;;;12.90;99.90;;;;;;5097687;28;20007;-89
2022/09/26 12:30:32;;;;;;;;;;;12.90;99.90;;;;;;5110042;27;19924;-88
2022/09/26 12:33:06;;;;;;;;;;;13.00;99.90;;;;;;5087564;28;21015;-88
2022/09/26 12:35:43;;;;;;;;;;;13.10;99.90;;;;;;5118619;27;19924;-88
2022/09/26 12:38:20;;;;;;;;;;;13.10;99.90;;;;;;5090496;28;19924;-89
2022/09/26 12:40:52;;;;;;;;;;;13.10;99.90;;;;;;5093287;28;19966;-89
2022/09/26 12:43:39;;;;;;;;;;;13.10;99.90;;;;;;5104865;28;19924;-88
2022/09/26 12:46:11;;;;;;;;;;;13.20;99.90;;;;;;5082948;28;19934;-89
2022/09/26 12:48:47;;;;;;;;;;;13.20;99.90;;;;;;5111096;28;20305;-88
2022/09/26 12:51:26;;;;;;;;;;;13.20;99.90;;;;;;5080110;28;19928;-86
2022/09/26 12:54:02;;;;;;;;;;;13.30;99.90;;;;;;5079725;28;20687;-88
2022/09/26 12:56:38;;;;;;;;;;;13.30;99.90;;;;;;5072673;28;20380;-85
2022/09/26 12:59:14;;;;;;;;;;;13.30;99.90;;;;;;5086923;28;19992;-86
2022/09/26 13:01:59;;;;;;;;;;;13.40;99.90;;;;;;5104687;28;20202;-88
2022/09/26 13:04:36;;;;;;;;;;;13.40;99.90;;;;;;5092236;28;20014;-84
2022/09/26 13:07:08;;;;;;;;;;;13.50;99.90;;;;;;5111232;27;19939;-85
2022/09/26 13:09:43;;;;;;;;;;;13.40;99.90;;;;;;5103433;27;21896;-83
2022/09/26 13:12:15;;;;;;;;;;;13.50;99.90;;;;;;5083015;28;19930;-85
2022/09/26 13:14:50;;;;;;;;;;;13.50;99.90;;;;;;5089339;28;19939;-83
2022/09/26 13:17:19;;;;;;;;;;;13.60;99.90;;;;;;5103148;27;19981;-85
2022/09/26 13:19:50;;;;;;;;;;;13.50;99.90;;;;;;5086616;28;19991;-85
2022/09/26 13:22:26;;;;;;;;;;;13.60;99.90;;;;;;5108249;27;20381;-86
2022/09/26 13:24:56;;;;;;;;;;;13.60;99.90;;;;;;5074274;28;19924;-83
2022/09/26 13:27:26;;;;;;;;;;;13.60;99.90;;;;;;5082062;28;20451;-83
2022/09/26 13:29:58;;;;;;;;;;;13.60;99.90;;;;;;5086559;28;20362;-82
2022/09/26 13:32:28;;;;;;;;;;;13.60;99.90;;;;;;5088610;28;19924;-87
2022/09/26 13:35:00;;;;;;;;;;;13.70;99.90;;;;;;5084849;28;19970;-83
2022/09/26 13:37:33;;;;;;;;;;;13.70;99.90;;;;;;5086914;28;19924;-85
2022/09/26 13:40:07;;;;;;;;;;;13.70;99.90;;;;;;5088656;28;19928;-89
2022/09/26 13:42:39;;;;;;;;;;;13.70;99.90;;;;;;5061673;28;19946;-88
2022/09/26 13:45:16;;;;;;;;;;;13.70;99.90;;;;;;5083483;28;20314;-88
2022/09/26 13:47:48;;;;;;;;;;;13.70;99.90;;;;;;5078555;28;19924;-87
2022/09/26 13:50:22;;;;;;;;;;;13.70;99.90;;;;;;5078653;28;19936;-88
2022/09/26 13:52:57;;;;;;;;;;;13.70;99.90;;;;;;5107239;27;19928;-88
2022/09/26 13:58:20;;;;;;;;;;;13.70;99.90;;;;;;5820753;22;19933;-76
2022/09/26 14:00:56;;;;;;;;;;;13.70;99.90;;;;;;5022246;28;20102;-75
2022/09/26 14:03:37;;;;;;;;;;;13.60;99.90;;;;;;5022940;28;19925;-77
2022/09/26 14:06:09;;;;;;;;;;;13.70;99.90;;;;;;5026220;28;20205;-77
2022/09/26 14:11:27;;;;;;;;;;;13.70;99.90;;;;;;5029844;28;20079;-79
2022/09/26 14:14:14;;;;;;;;;;;13.70;99.90;;;;;;5026103;28;19926;-77
2022/09/26 14:16:43;;;;;;;;;;;13.70;99.90;;;;;;5016484;28;19933;-76
2022/09/26 14:19:11;;;;;;;;;;;13.70;99.90;;;;;;5018554;28;20036;-78
2022/09/26 14:21:39;;;;;;;;;;;13.70;99.90;;;;;;5019726;28;20036;-77
2022/09/26 14:24:26;;;;;;;;;;;13.70;99.90;;;;;;5015868;28;19968;-76
2022/09/26 14:26:57;;;;;;;;;;;13.70;99.90;;;;;;5034292;28;19975;-76
2022/09/26 14:29:25;;;;;;;;;;;13.70;99.90;;;;;;5006320;28;19925;-78
2022/09/26 14:32:00;;;;;;;;;;;13.70;99.90;;;;;;5010972;28;20411;-77
2022/09/26 14:34:29;;;;;;;;;;;13.70;99.90;;;;;;5014753;28;19929;-77
2022/09/26 14:36:59;;;;;;;;;;;13.70;99.90;;;;;;5077578;22;19941;-78
2022/09/26 14:39:38;;;;;;;;;;;13.80;99.90;;;;;;4979463;28;20032;-77
2022/09/26 14:42:09;;;;;;;;;;;13.80;99.90;;;;;;4980797;28;19938;-78
2022/09/26 14:44:36;;;;;;;;;;;13.80;99.90;;;;;;4986539;28;20377;-76
2022/09/26 14:47:07;;;;;;;;;;;13.80;99.90;;;;;;4976102;28;19940;-77
2022/09/26 14:49:34;;;;;;;;;;;13.80;99.90;;;;;;4989433;28;19932;-77
2022/09/26 14:52:02;;;;;;;;;;;13.80;99.90;;;;;;4981491;28;19930;-77
2022/09/26 14:54:35;;;;;;;;;;;13.80;99.90;;;;;;4989839;28;19940;-77
2022/09/26 14:57:03;;;;;;;;;;;13.80;99.90;;;;;;4986053;28;19933;-77
2022/09/26 14:59:41;;;;;;;;;;;13.80;99.90;;;;;;4988483;28;20358;-78
2022/09/26 15:02:23;;;;;;;;;;;13.80;99.90;;;;;;4983874;28;19932;-78
2022/09/26 15:04:51;;;;;;;;;;;13.80;99.90;;;;;;4984909;28;19929;-78
2022/09/26 15:07:20;;;;;;;;;;;13.80;99.90;;;;;;4985720;28;19932;-77
2022/09/26 15:09:49;;;;;;;;;;;13.80;99.90;;;;;;4988826;28;19980;-77
2022/09/26 15:12:18;;;;;;;;;;;13.80;99.90;;;;;;4982745;28;20376;-77
2022/09/26 15:14:48;;;;;;;;;;;13.80;99.90;;;;;;4986266;28;19926;-76
2022/09/26 15:17:16;;;;;;;;;;;13.80;99.90;;;;;;4986249;28;20009;-77
2022/09/26 15:19:48;;;;;;;;;;;13.80;99.90;;;;;;4982459;28;19933;-77